Time;durP1;ratioP1;P1;durP2;ratioP2;P2;SDS_P1;SDS_P2;PMS_P1;PMS_P2;Temp;Humidity;BMP_temperature;BMP_pressure;BME280_temperature;BME280_humidity;BME280_pressure;Samples;Min_cycle;Max_cycle;Signal;HPM_P1;HPM_P2
2023/08/12 00:00:46;;;;;;;12.52;8.18;;;;;;;20.73;97.53;101665.44;5023407;28;20037;-73
2023/08/12 00:03:12;;;;;;;12.27;8.80;;;;;;;20.72;97.77;101656.28;5024026;28;20037;-73
2023/08/12 00:05:39;;;;;;;10.77;8.02;;;;;;;20.73;98.49;101663.53;5024475;28;20129;-73
2023/08/12 00:08:05;;;;;;;12.93;9.25;;;;;;;20.71;98.72;101661.97;5027275;28;20029;-73
2023/08/12 00:10:30;;;;;;;13.95;8.68;;;;;;;20.73;98.18;101660.78;5026337;28;20335;-73
2023/08/12 00:12:56;;;;;;;10.85;8.30;;;;;;;20.73;98.05;101665.44;5022915;28;20041;-73
2023/08/12 00:15:21;;;;;;;15.43;9.02;;;;;;;20.71;98.34;101659.22;5008499;28;20041;-73
2023/08/12 00:17:47;;;;;;;11.52;9.02;;;;;;;20.71;99.35;101659.22;5008474;28;20021;-73
2023/08/12 00:20:12;;;;;;;14.10;8.98;;;;;;;20.71;100.00;101650.91;5008348;28;20045;-73
2023/08/12 00:22:38;;;;;;;17.77;10.20;;;;;;;20.67;100.00;101638.44;5016144;28;20061;-73
2023/08/12 00:25:04;;;;;;;17.05;10.23;;;;;;;20.64;100.00;101640.47;5027967;28;20517;-74
2023/08/12 00:27:29;;;;;;;16.05;9.18;;;;;;;20.64;99.71;101640.47;5026019;28;20034;-73
2023/08/12 00:29:55;;;;;;;15.55;9.13;;;;;;;20.66;99.73;101636.66;5025211;28;20052;-73
2023/08/12 00:32:20;;;;;;;13.40;9.52;;;;;;;20.65;100.00;101630.28;5024471;28;20481;-73
2023/08/12 00:34:45;;;;;;;16.27;8.93;;;;;;;20.67;99.29;101633.75;5042960;28;20037;-74
2023/08/12 00:37:11;;;;;;;12.93;9.38;;;;;;;20.67;99.01;101631.00;5026699;28;20037;-73
2023/08/12 00:39:36;;;;;;;14.13;9.43;;;;;;;20.65;100.00;101627.50;5027093;28;20041;-73
2023/08/12 00:42:01;;;;;;;11.52;9.00;;;;;;;20.66;99.40;101618.22;5025334;28;20036;-73
2023/08/12 00:44:27;;;;;;;15.27;9.27;;;;;;;20.64;99.30;101625.78;5026171;28;20056;-74
2023/08/12 00:46:52;;;;;;;11.60;8.60;;;;;;;20.62;99.05;101625.94;5023608;28;20131;-73
2023/08/12 00:49:18;;;;;;;16.75;9.02;;;;;;;20.63;99.20;101619.38;5027240;28;20029;-73
2023/08/12 00:51:45;;;;;;;13.70;9.73;;;;;;;20.61;99.83;101615.91;5026384;28;20048;-73
2023/08/12 00:54:14;;;;;;;16.95;9.20;;;;;;;20.62;98.83;101614.88;5006150;28;20401;-72
2023/08/12 00:56:40;;;;;;;12.40;8.98;;;;;;;20.63;99.06;101611.06;5006094;28;20132;-73
2023/08/12 00:59:08;;;;;;;16.45;9.02;;;;;;;20.63;98.86;101611.06;5007677;28;20471;-73
2023/08/12 01:01:35;;;;;;;15.02;8.98;;;;;;;20.62;99.87;101614.88;5018342;28;20480;-74
2023/08/12 01:04:00;;;;;;;13.30;9.00;;;;;;;20.60;99.41;101607.75;5027644;28;20034;-73
2023/08/12 01:06:26;;;;;;;14.10;8.65;;;;;;;20.57;99.67;101595.13;5025195;28;20491;-73
2023/08/12 01:08:52;;;;;;;14.85;8.60;;;;;;;20.59;99.26;101603.25;5022052;28;20104;-73
2023/08/12 01:11:28;;;;;;;16.73;9.38;;;;;;;20.59;99.72;101603.25;5007146;28;20045;-74
2023/08/12 01:14:09;;;;;;;15.93;9.23;;;;;;;20.57;99.82;101597.03;5005772;28;20133;-73
2023/08/12 01:16:40;;;;;;;14.15;9.15;;;;;;;20.55;99.56;101591.63;5017817;28;20033;-73
2023/08/12 01:19:10;;;;;;;12.02;8.38;;;;;;;20.55;99.37;101590.78;5043256;28;20477;-73
2023/08/12 01:21:40;;;;;;;14.70;8.70;;;;;;;20.55;99.33;101588.00;5041637;28;20421;-74
2023/08/12 01:24:06;;;;;;;13.25;8.65;;;;;;;20.54;100.00;101587.16;5026434;28;20033;-73
2023/08/12 01:26:31;;;;;;;13.45;8.55;;;;;;;20.52;99.16;101578.16;5020847;28;20038;-73
2023/08/12 01:28:57;;;;;;;14.63;9.93;;;;;;;20.50;100.00;101582.09;5007314;28;20400;-73
2023/08/12 01:31:34;;;;;;;13.90;9.10;;;;;;;20.48;100.00;101573.97;5007401;28;20038;-74
2023/08/12 01:34:25;;;;;;;16.92;9.20;;;;;;;20.48;100.00;101570.34;5006281;28;20039;-74
2023/08/12 01:36:56;;;;;;;18.08;10.60;;;;;;;20.45;100.00;101568.69;5025060;28;20048;-74
2023/08/12 01:39:23;;;;;;;14.15;10.38;;;;;;;20.43;100.00;101565.25;5021351;28;20069;-73
2023/08/12 01:41:50;;;;;;;12.70;8.65;;;;;;;20.43;99.99;101564.38;5026350;28;20036;-73
2023/08/12 01:44:16;;;;;;;14.82;9.77;;;;;;;20.41;100.00;101561.75;5009023;28;20033;-73
2023/08/12 01:46:43;;;;;;;15.10;9.57;;;;;;;20.42;100.00;101568.16;5011727;28;20041;-73
2023/08/12 01:49:09;;;;;;;13.95;9.55;;;;;;;20.39;100.00;101559.16;4993697;28;20030;-74
2023/08/12 01:51:34;;;;;;;13.85;9.45;;;;;;;20.41;100.00;101560.88;5011351;28;20026;-73
2023/08/12 01:54:01;;;;;;;16.58;9.93;;;;;;;20.40;100.00;101554.50;5011344;28;20038;-74
2023/08/12 01:56:26;;;;;;;21.20;11.07;;;;;;;20.40;100.00;101557.25;4992710;28;20044;-73
2023/08/12 01:58:52;;;;;;;17.73;9.52;;;;;;;20.39;100.00;101548.09;5009135;28;20054;-74
2023/08/12 02:01:17;;;;;;;19.40;11.07;;;;;;;20.38;100.00;101551.03;4997295;28;20119;-73
2023/08/12 02:03:43;;;;;;;13.60;8.68;;;;;;;20.39;100.00;101547.22;5009562;28;20049;-73
2023/08/12 02:06:08;;;;;;;14.07;9.70;;;;;;;20.38;100.00;101545.50;5017117;28;20044;-74
2023/08/12 02:08:33;;;;;;;16.92;11.05;;;;;;;20.41;100.00;101552.59;5030862;28;20041;-73
2023/08/12 02:10:59;;;;;;;18.00;10.70;;;;;;;20.38;100.00;101543.59;5028580;28;20152;-73
2023/08/12 02:13:24;;;;;;;16.42;10.82;;;;;;;20.38;100.00;101543.59;5013887;28;20424;-73
2023/08/12 02:15:50;;;;;;;16.60;11.70;;;;;;;20.39;100.00;101541.69;5013967;28;20448;-73
2023/08/12 02:18:15;;;;;;;17.77;9.85;;;;;;;20.38;100.00;101546.38;5030584;28;20436;-73
2023/08/12 02:20:41;;;;;;;18.27;10.18;;;;;;;20.39;100.00;101539.81;5029234;28;20416;-73
2023/08/12 02:23:06;;;;;;;13.68;9.75;;;;;;;20.41;100.00;101549.81;5011169;28;20452;-73
2023/08/12 02:25:32;;;;;;;16.33;10.27;;;;;;;20.39;100.00;101541.69;5010299;28;20037;-73
2023/08/12 02:27:58;;;;;;;16.55;10.10;;;;;;;20.37;100.00;101532.69;5023835;28;20625;-73
2023/08/12 02:30:23;;;;;;;22.67;10.80;;;;;;;20.36;100.00;101534.59;5027220;28;20048;-73
2023/08/12 02:32:49;;;;;;;19.25;10.20;;;;;;;20.32;100.00;101526.75;5028923;28;20037;-73
2023/08/12 02:35:16;;;;;;;18.13;9.85;;;;;;;20.30;100.00;101531.59;5027595;28;20033;-73
2023/08/12 02:37:42;;;;;;;14.25;9.65;;;;;;;20.30;100.00;101524.16;5028657;28;20519;-73
2023/08/12 02:40:08;;;;;;;15.77;8.68;;;;;;;20.29;100.00;101522.44;5027822;28;20071;-73
2023/08/12 02:42:33;;;;;;;20.17;9.70;;;;;;;20.30;100.00;101515.88;5027307;28;20034;-73
2023/08/12 02:44:59;;;;;;;15.98;9.18;;;;;;;20.28;100.00;101512.38;5027937;28;20542;-74
2023/08/12 02:47:26;;;;;;;19.23;8.50;;;;;;;20.27;100.00;101512.56;5026332;28;20584;-73
2023/08/12 02:49:52;;;;;;;11.95;8.38;;;;;;;20.26;100.00;101508.94;5028279;28;20072;-73
2023/08/12 02:52:17;;;;;;;17.95;9.25;;;;;;;20.26;100.00;101510.81;5028451;28;20073;-73
2023/08/12 02:54:42;;;;;;;15.95;9.07;;;;;;;20.25;100.00;101503.56;5017151;28;20425;-73
2023/08/12 02:57:08;;;;;;;14.20;8.57;;;;;;;20.24;100.00;101499.94;4992575;28;20041;-73
2023/08/12 02:59:33;;;;;;;15.00;8.50;;;;;;;20.22;100.00;101498.34;5009025;28;20626;-74
2023/08/12 03:01:59;;;;;;;13.63;8.73;;;;;;;20.24;100.00;101499.06;5010660;28;20030;-74
2023/08/12 03:04:25;;;;;;;13.10;8.02;;;;;;;20.22;100.00;101499.22;5009630;28;20057;-73
2023/08/12 03:06:50;;;;;;;13.07;8.15;;;;;;;20.21;100.00;101502.16;5012196;28;20067;-74
2023/08/12 03:09:18;;;;;;;13.88;8.65;;;;;;;20.18;100.00;101489.50;5010994;28;20041;-73
2023/08/12 03:11:44;;;;;;;15.55;7.68;;;;;;;20.16;100.00;101490.69;5026906;28;20445;-74
2023/08/12 03:14:10;;;;;;;20.45;9.18;;;;;;;20.13;100.00;101486.34;5011402;28;20068;-74
2023/08/12 03:16:35;;;;;;;15.35;8.82;;;;;;;20.11;100.00;101489.28;5025938;28;20065;-73
2023/08/12 03:19:00;;;;;;;13.00;7.57;;;;;;;20.09;100.00;101479.41;5026630;28;20057;-73
2023/08/12 03:21:26;;;;;;;12.88;7.85;;;;;;;20.11;100.00;101486.50;5008330;28;20034;-73
2023/08/12 03:23:51;;;;;;;16.02;7.80;;;;;;;20.09;100.00;101480.25;5007947;28;20030;-73
2023/08/12 03:26:17;;;;;;;12.30;8.15;;;;;;;20.08;100.00;101480.44;5007340;28;20030;-73
2023/08/12 03:28:43;;;;;;;16.60;7.55;;;;;;;20.04;100.00;101466.06;5007658;28;20069;-73
2023/08/12 03:31:12;;;;;;;14.10;7.07;;;;;;;20.02;100.00;101465.34;5007957;28;20028;-74
2023/08/12 03:33:37;;;;;;;13.00;8.10;;;;;;;19.99;100.00;101468.41;5028242;28;20029;-74
2023/08/12 03:36:04;;;;;;;12.85;7.53;;;;;;;19.98;100.00;101471.34;5011584;28;20559;-73
2023/08/12 03:38:29;;;;;;;10.63;6.72;;;;;;;19.97;100.00;101462.19;5026751;28;20068;-73
2023/08/12 03:40:55;;;;;;;15.55;7.38;;;;;;;19.97;100.00;101444.75;5026693;28;20025;-74
2023/08/12 03:43:20;;;;;;;15.32;7.13;;;;;;;19.96;100.00;101454.06;5028491;28;20041;-74
2023/08/12 03:45:46;;;;;;;16.02;7.32;;;;;;;19.91;100.00;101457.31;5021184;28;20129;-73
2023/08/12 03:48:14;;;;;;;11.50;7.18;;;;;;;19.87;100.00;101459.53;4991742;28;20041;-74
2023/08/12 03:50:42;;;;;;;12.95;7.50;;;;;;;19.83;100.00;101455.31;4990952;28;20485;-73
2023/08/12 03:53:08;;;;;;;14.20;7.20;;;;;;;19.79;100.00;101453.03;5012006;28;20388;-73
2023/08/12 03:55:34;;;;;;;11.35;7.70;;;;;;;19.77;100.00;101446.78;5007753;28;20249;-73
2023/08/12 03:58:00;;;;;;;11.40;7.13;;;;;;;19.77;100.00;101447.69;5006062;28;20049;-73
2023/08/12 04:00:27;;;;;;;13.25;7.50;;;;;;;19.77;100.00;101442.16;5022536;28;20030;-73
2023/08/12 04:02:53;;;;;;;13.63;7.03;;;;;;;19.75;100.00;101444.19;5007222;28;20046;-73
2023/08/12 04:05:19;;;;;;;12.57;7.50;;;;;;;19.74;100.00;101445.22;5007545;28;20061;-74
2023/08/12 04:07:44;;;;;;;11.68;6.97;;;;;;;19.76;100.00;101436.78;5007181;28;20046;-74
2023/08/12 04:10:10;;;;;;;11.63;7.22;;;;;;;19.75;100.00;101430.38;5021567;28;20570;-73
2023/08/12 04:12:35;;;;;;;12.82;6.95;;;;;;;19.73;100.00;101439.88;5022274;28;20104;-73
2023/08/12 04:15:04;;;;;;;13.23;7.20;;;;;;;19.70;100.00;101430.00;5007894;28;20038;-74
2023/08/12 04:17:29;;;;;;;11.07;6.32;;;;;;;19.71;100.00;101428.09;5024734;28;20047;-74
2023/08/12 04:19:54;;;;;;;10.82;6.85;;;;;;;19.72;100.00;101422.41;5026665;28;20041;-73
2023/08/12 04:22:20;;;;;;;13.10;6.88;;;;;;;19.71;100.00;101417.03;5026501;28;20044;-73
2023/08/12 04:24:45;;;;;;;13.07;6.50;;;;;;;19.72;100.00;101422.41;5026560;28;20079;-74
2023/08/12 04:27:12;;;;;;;12.20;6.93;;;;;;;19.73;100.00;101429.69;5042511;28;20061;-74
2023/08/12 04:29:37;;;;;;;13.13;6.63;;;;;;;19.76;100.00;101422.97;5027803;28;20060;-72
2023/08/12 04:32:03;;;;;;;10.93;5.90;;;;;;;19.75;100.00;101424.00;5024368;28;20041;-72
2023/08/12 04:34:28;;;;;;;9.82;6.30;;;;;;;19.73;100.00;101418.66;5026137;28;20237;-72
2023/08/12 04:36:53;;;;;;;9.32;6.40;;;;;;;19.71;100.00;101425.34;5017799;28;20061;-72
2023/08/12 04:39:19;;;;;;;8.85;6.07;;;;;;;19.68;100.00;101431.16;5005799;28;20034;-73
2023/08/12 04:41:44;;;;;;;9.73;5.15;;;;;;;19.68;100.00;101436.69;5006003;28;20042;-72
2023/08/12 04:44:10;;;;;;;11.05;5.97;;;;;;;19.63;100.00;101420.56;5024077;28;20417;-73
2023/08/12 04:46:35;;;;;;;10.10;6.13;;;;;;;19.60;100.00;101407.09;5024031;28;20033;-73
2023/08/12 04:49:01;;;;;;;12.40;5.68;;;;;;;19.57;100.00;101401.84;5025785;28;20142;-73
2023/08/12 04:51:26;;;;;;;10.57;6.05;;;;;;;19.54;100.00;101404.94;4995594;28;20390;-74
2023/08/12 04:53:52;;;;;;;12.55;5.75;;;;;;;19.53;100.00;101400.44;4989870;28;20144;-74
2023/08/12 04:56:18;;;;;;;11.43;5.80;;;;;;;19.53;100.00;101412.34;4992470;28;20032;-73
2023/08/12 04:58:44;;;;;;;9.52;6.45;;;;;;;19.56;100.00;101402.88;5042019;28;20413;-73
2023/08/12 05:01:10;;;;;;;11.20;6.18;;;;;;;19.52;100.00;101402.31;5024173;28;20026;-71
2023/08/12 05:03:37;;;;;;;15.15;7.55;;;;;;;19.50;100.00;101407.16;5026862;28;20044;-72
2023/08/12 05:06:03;;;;;;;12.32;6.75;;;;;;;19.42;100.00;101396.00;5025291;28;20033;-73
2023/08/12 05:08:29;;;;;;;13.30;6.82;;;;;;;19.43;100.00;101394.09;5025789;28;20048;-72
2023/08/12 05:10:55;;;;;;;12.57;6.75;;;;;;;19.44;100.00;101398.59;5025171;28;20045;-72
2023/08/12 05:13:20;;;;;;;15.88;7.35;;;;;;;19.42;100.00;101392.38;5025429;28;20041;-73
2023/08/12 05:15:47;;;;;;;14.15;7.22;;;;;;;19.39;100.00;101399.06;5021202;28;20132;-72
2023/08/12 05:18:13;;;;;;;10.27;6.60;;;;;;;19.35;100.00;101387.50;5023168;28;20033;-71
2023/08/12 05:20:42;;;;;;;12.48;6.63;;;;;;;19.39;100.00;101388.03;5027273;28;20064;-71
2023/08/12 05:23:08;;;;;;;11.93;6.65;;;;;;;19.38;100.00;101389.06;5018339;28;20034;-72
2023/08/12 05:25:34;;;;;;;9.50;6.70;;;;;;;19.38;100.00;101383.53;5006544;28;20049;-72
2023/08/12 05:27:59;;;;;;;12.68;6.65;;;;;;;19.40;100.00;101388.88;5014380;28;20045;-71
2023/08/12 05:30:25;;;;;;;10.80;6.53;;;;;;;19.41;100.00;101380.47;5006249;28;20026;-71
2023/08/12 05:32:50;;;;;;;14.23;6.50;;;;;;;19.40;100.00;101376.00;5027137;28;20037;-71
2023/08/12 05:35:15;;;;;;;10.50;6.07;;;;;;;19.39;100.00;101374.22;5026646;28;20048;-71
2023/08/12 05:37:41;;;;;;;10.23;6.60;;;;;;;19.42;100.00;101387.72;5026705;28;20102;-72
2023/08/12 05:40:09;;;;;;;9.48;6.97;;;;;;;19.43;100.00;101383.06;5026013;28;20029;-71
2023/08/12 05:42:35;;;;;;;9.35;6.00;;;;;;;19.40;100.00;101381.50;5027349;28;20413;-72
2023/08/12 05:45:00;;;;;;;10.07;6.45;;;;;;;19.40;100.00;101380.63;5015715;28;20068;-72
2023/08/12 05:47:26;;;;;;;12.77;6.53;;;;;;;19.42;100.00;101373.06;5019352;28;20065;-71
2023/08/12 05:49:51;;;;;;;11.90;6.82;;;;;;;19.42;100.00;101371.16;5026245;28;20120;-72
2023/08/12 05:52:16;;;;;;;8.43;6.32;;;;;;;19.45;100.00;101373.63;5018207;28;20026;-73
2023/08/12 05:54:42;;;;;;;9.05;6.22;;;;;;;19.46;100.00;101375.34;5007431;28;20038;-73
2023/08/12 05:57:07;;;;;;;10.73;5.80;;;;;;;19.48;100.00;101373.28;5007976;28;20038;-72
2023/08/12 05:59:33;;;;;;;9.40;5.97;;;;;;;19.48;100.00;101372.44;5006284;28;20057;-73
2023/08/12 06:01:58;;;;;;;9.85;6.18;;;;;;;19.46;100.00;101364.31;5019159;28;20036;-72
2023/08/12 06:04:24;;;;;;;7.15;5.13;;;;;;;19.47;100.00;101374.31;5026822;28;20076;-73
2023/08/12 06:06:50;;;;;;;8.05;5.95;;;;;;;19.48;100.00;101369.66;5020571;28;20057;-73
2023/08/12 06:09:15;;;;;;;7.53;5.47;;;;;;;19.49;100.00;101371.41;5014276;28;20026;-73
2023/08/12 06:11:40;;;;;;;9.13;5.30;;;;;;;19.47;100.00;101365.19;5010643;28;20045;-72
2023/08/12 06:14:06;;;;;;;7.07;4.78;;;;;;;19.47;100.00;101359.66;5026983;28;20379;-73
2023/08/12 06:16:31;;;;;;;7.57;5.00;;;;;;;19.48;100.00;101353.13;5023158;28;20073;-74
2023/08/12 06:18:56;;;;;;;8.60;4.75;;;;;;;19.49;100.00;101357.59;5023460;28;20466;-72
2023/08/12 06:21:22;;;;;;;6.15;4.15;;;;;;;19.53;100.00;101351.59;5008955;28;20033;-73
2023/08/12 06:23:47;;;;;;;7.13;4.80;;;;;;;19.57;100.00;101352.16;5028935;28;20095;-73
2023/08/12 06:26:12;;;;;;;5.88;4.20;;;;;;;19.59;100.00;101355.66;5027649;28;20099;-72
2023/08/12 06:28:38;;;;;;;6.82;4.57;;;;;;;19.55;100.00;101345.94;5026577;28;20021;-71
2023/08/12 06:31:03;;;;;;;4.93;4.43;;;;;;;19.58;100.00;101348.38;5014676;28;20047;-73
2023/08/12 06:33:28;;;;;;;8.07;4.57;;;;;;;19.59;100.00;101339.97;5028478;28;20489;-73
2023/08/12 06:35:54;;;;;;;5.72;4.20;;;;;;;19.60;100.00;101336.19;5012391;28;20058;-73
2023/08/12 06:38:19;;;;;;;4.80;3.72;;;;;;;19.67;100.00;101335.56;5010347;28;20036;-74
2023/08/12 06:40:45;;;;;;;8.38;4.10;;;;;;;19.69;100.00;101334.38;5009758;28;20037;-74
2023/08/12 06:43:10;;;;;;;6.40;4.47;;;;;;;19.71;100.00;101337.84;5009949;28;20049;-73
2023/08/12 06:45:35;;;;;;;5.38;4.43;;;;;;;19.71;100.00;101328.69;5010588;28;20400;-73
2023/08/12 06:48:02;;;;;;;6.57;3.92;;;;;;;19.76;100.00;101327.19;5009969;28;20036;-72
2023/08/12 06:50:27;;;;;;;4.97;4.03;;;;;;;19.78;100.00;101325.16;5010966;28;20056;-73
2023/08/12 06:52:53;;;;;;;6.38;3.92;;;;;;;19.82;100.00;101329.34;5016038;28;20117;-74
2023/08/12 06:55:18;;;;;;;5.25;3.55;;;;;;;19.92;100.00;101322.84;5026329;28;20021;-72
2023/08/12 06:57:43;;;;;;;5.13;3.70;;;;;;;19.92;100.00;101320.97;5027090;28;20053;-73
2023/08/12 07:00:09;;;;;;;5.28;3.80;;;;;;;19.95;100.00;101320.63;5026999;28;20525;-72
2023/08/12 07:02:35;;;;;;;4.88;3.63;;;;;;;19.99;100.00;101321.16;5017736;28;20092;-73
2023/08/12 07:05:00;;;;;;;5.57;4.22;;;;;;;20.00;100.00;101315.47;5013615;28;20044;-74
2023/08/12 07:07:26;;;;;;;5.20;3.50;;;;;;;20.10;100.00;101312.63;5009621;28;20516;-73
2023/08/12 07:09:51;;;;;;;4.90;3.70;;;;;;;20.10;100.00;101316.25;5020052;28;20037;-74
2023/08/12 07:12:16;;;;;;;4.03;3.50;;;;;;;20.13;100.00;101315.06;5028207;28;20045;-73
2023/08/12 07:14:42;;;;;;;5.88;4.25;;;;;;;20.10;100.00;101313.50;5023715;28;20047;-73
2023/08/12 07:17:07;;;;;;;4.82;4.03;;;;;;;20.12;100.00;101321.63;5019993;28;20072;-74
2023/08/12 07:19:32;;;;;;;5.25;4.32;;;;;;;20.12;100.00;101313.31;5024156;28;20036;-73
2023/08/12 07:21:58;;;;;;;5.88;4.85;;;;;;;20.08;100.00;101314.69;5026608;28;20303;-73
2023/08/12 07:24:23;;;;;;;5.60;4.80;;;;;;;20.10;100.00;101313.50;5024906;28;20497;-73
2023/08/12 07:26:48;;;;;;;4.80;4.10;;;;;;;20.14;100.00;101319.53;5020416;28;20037;-72
2023/08/12 07:29:14;;;;;;;6.22;4.93;;;;;;;20.17;100.00;101316.47;5008420;28;20049;-72
2023/08/12 07:31:39;;;;;;;4.88;4.38;;;;;;;20.16;100.00;101313.88;5008989;28;20030;-72
2023/08/12 07:34:05;;;;;;;4.35;3.92;;;;;;;20.15;100.00;101309.38;5010812;28;20040;-73
2023/08/12 07:36:31;;;;;;;4.55;4.05;;;;;;;20.13;100.00;101312.28;5029129;28;20431;-73
2023/08/12 07:38:58;;;;;;;6.90;4.60;;;;;;;20.12;100.00;101310.56;5027947;28;20371;-73
2023/08/12 07:41:27;;;;;;;4.70;4.30;;;;;;;20.10;100.00;101313.50;5028170;28;20052;-73
2023/08/12 07:43:52;;;;;;;5.35;4.30;;;;;;;20.08;100.00;101317.44;5027853;28;20048;-72
2023/08/12 07:46:18;;;;;;;4.85;4.45;;;;;;;20.11;100.00;101318.00;5008786;28;20037;-73
2023/08/12 07:48:43;;;;;;;4.75;3.88;;;;;;;20.14;100.00;101308.50;5007950;28;20052;-73
2023/08/12 07:51:09;;;;;;;4.22;3.83;;;;;;;20.16;100.00;101303.69;5014494;28;20037;-70
2023/08/12 07:53:34;;;;;;;5.03;4.05;;;;;;;20.17;100.00;101302.66;5026426;28;20029;-73
2023/08/12 07:56:00;;;;;;;4.15;3.75;;;;;;;20.22;100.00;101314.09;5021592;28;20497;-72
2023/08/12 07:58:26;;;;;;;4.20;3.33;;;;;;;20.29;100.00;101306.03;5017429;28;20061;-73
2023/08/12 08:00:54;;;;;;;4.38;3.97;;;;;;;20.33;100.00;101312.94;5012147;28;20560;-72
2023/08/12 08:03:20;;;;;;;7.32;3.70;;;;;;;20.35;100.00;101311.75;5008691;28;20045;-71
2023/08/12 08:05:46;;;;;;;4.07;3.60;;;;;;;20.42;100.00;101316.63;5025429;28;20089;-71
2023/08/12 08:08:12;;;;;;;3.25;2.83;;;;;;;20.43;100.00;101321.13;5011005;28;20482;-72
2023/08/12 08:10:38;;;;;;;5.18;3.22;;;;;;;20.49;100.00;101320.50;5009267;28;20036;-72
2023/08/12 08:13:03;;;;;;;3.40;3.10;;;;;;;20.56;100.00;101325.22;5007737;28;20057;-72
2023/08/12 08:15:29;;;;;;;3.05;2.75;;;;;;;20.64;100.00;101322.47;5007423;28;20030;-72
2023/08/12 08:17:54;;;;;;;3.15;2.85;;;;;;;20.68;100.00;101330.47;5009829;28;20468;-72
2023/08/12 08:20:19;;;;;;;3.00;2.67;;;;;;;20.67;100.00;101329.59;5018943;28;20041;-72
2023/08/12 08:22:45;;;;;;;3.03;2.60;;;;;;;20.64;100.00;101328.00;5026545;28;20044;-72
2023/08/12 08:25:10;;;;;;;3.28;2.90;;;;;;;20.56;100.00;101343.69;5013509;28;20473;-72
2023/08/12 08:27:35;;;;;;;4.55;3.13;;;;;;;20.59;100.00;101344.22;5021679;28;20531;-71
2023/08/12 08:30:01;;;;;;;4.63;2.85;;;;;;;20.68;100.00;101342.38;5006309;28;20045;-71
2023/08/12 08:32:26;;;;;;;3.65;3.35;;;;;;;20.70;100.00;101344.97;5018718;28;20502;-72
2023/08/12 08:34:51;;;;;;;3.47;3.17;;;;;;;20.70;100.00;101334.78;5019748;28;20037;-71
2023/08/12 08:37:17;;;;;;;4.45;4.05;;;;;;;20.76;100.00;101347.97;5010474;28;20045;-71
2023/08/12 08:39:42;;;;;;;4.70;4.03;;;;;;;20.78;100.00;101348.66;5008298;28;20083;-71
2023/08/12 08:42:11;;;;;;;4.65;4.22;;;;;;;20.87;100.00;101347.66;5007848;28;20156;-71
2023/08/12 08:44:41;;;;;;;5.28;4.15;;;;;;;20.85;100.00;101348.88;5006925;28;20048;-72
2023/08/12 08:47:08;;;;;;;6.43;4.85;;;;;;;20.88;100.00;101356.81;5011892;28;20025;-71
2023/08/12 08:49:35;;;;;;;5.07;4.57;;;;;;;20.81;100.00;101356.63;5027590;28;20033;-74
2023/08/12 08:52:01;;;;;;;6.53;4.40;;;;;;;20.88;100.00;101357.69;5020329;28;20461;-72
2023/08/12 08:54:28;;;;;;;5.00;4.60;;;;;;;20.99;100.00;101362.06;5006530;28;20096;-72
2023/08/12 08:56:53;;;;;;;4.60;4.20;;;;;;;21.09;100.00;101362.78;5007018;28;20077;-71
2023/08/12 08:59:21;;;;;;;6.30;5.70;;;;;;;21.27;100.00;101367.38;5004757;28;20536;-72
2023/08/12 09:01:49;;;;;;;6.43;5.88;;;;;;;21.51;100.00;101352.75;5007938;28;20042;-71
2023/08/12 09:04:15;;;;;;;6.55;5.95;;;;;;;21.61;100.00;101351.53;5014264;28;20065;-72
2023/08/12 09:06:42;;;;;;;6.43;5.82;;;;;;;21.73;100.00;101359.50;5007498;28;20521;-72
2023/08/12 09:09:14;;;;;;;7.85;5.50;;;;;;;21.69;100.00;101366.44;5015655;28;20021;-71
2023/08/12 09:11:40;;;;;;;5.78;4.60;;;;;;;21.54;100.00;101374.53;5024155;28;20125;-72
2023/08/12 09:14:06;;;;;;;6.95;5.13;;;;;;;21.34;100.00;101377.59;5018490;28;20465;-73
2023/08/12 09:16:31;;;;;;;5.40;4.90;;;;;;;21.27;100.00;101370.13;5006276;28;20041;-71
2023/08/12 09:18:58;;;;;;;4.18;3.40;;;;;;;21.25;100.00;101380.47;5005937;28;20490;-71
2023/08/12 09:21:24;;;;;;;4.90;3.20;;;;;;;21.33;100.00;101380.56;5011090;28;20021;-72
2023/08/12 09:23:49;;;;;;;4.10;3.20;;;;;;;21.57;100.00;101388.06;5008962;28;20046;-72
2023/08/12 09:26:19;;;;;;;3.63;3.25;;;;;;;21.76;100.00;101403.50;5005958;28;20033;-71
2023/08/12 09:28:45;;;;;;;4.78;2.70;;;;;;;21.75;100.00;101410.06;5006312;28;20037;-72
2023/08/12 09:31:25;;;;;;;4.15;2.45;;;;;;;21.75;100.00;101399.84;5010808;28;21143;-72
2023/08/12 09:33:50;;;;;;;2.58;2.38;;;;;;;21.67;100.00;101399.84;5006266;28;20056;-72
2023/08/12 09:36:17;;;;;;;4.20;2.30;;;;;;;21.64;98.98;101400.19;5007237;28;20383;-73
2023/08/12 09:38:43;;;;;;;2.33;2.05;;;;;;;21.68;100.00;101400.69;5007253;28;20434;-72
2023/08/12 09:41:09;;;;;;;2.50;2.13;;;;;;;21.64;100.00;101408.50;5002461;28;20096;-69
2023/08/12 09:43:34;;;;;;;3.38;2.83;;;;;;;21.37;97.70;101404.09;5014746;28;20133;-72
2023/08/12 09:45:59;;;;;;;3.90;3.40;;;;;;;21.23;98.56;101407.47;5021806;28;20037;-71
2023/08/12 09:48:26;;;;;;;2.95;2.65;;;;;;;21.13;99.13;101405.72;5026332;28;20531;-72
2023/08/12 09:50:53;;;;;;;3.92;2.72;;;;;;;21.18;99.99;101409.88;5019651;28;20038;-72
2023/08/12 09:53:19;;;;;;;2.92;2.38;;;;;;;21.25;99.57;101409.03;5019884;28;20033;-72
2023/08/12 09:55:47;;;;;;;5.53;2.20;;;;;;;21.29;100.00;101413.19;5024938;28;20041;-72
2023/08/12 09:58:17;;;;;;;2.35;1.88;;;;;;;21.39;99.68;101413.94;5029042;28;20128;-72
2023/08/12 10:00:43;;;;;;;2.38;1.98;;;;;;;21.41;98.15;101424.00;5025746;28;20096;-73
2023/08/12 10:03:10;;;;;;;2.83;1.63;;;;;;;21.31;97.06;101422.25;5009270;28;20065;-70
2023/08/12 10:05:36;;;;;;;2.85;1.70;;;;;;;21.24;95.03;101417.50;5028541;28;20037;-72
2023/08/12 10:08:03;;;;;;;5.07;1.80;;;;;;;21.35;95.78;101420.00;5027665;28;20048;-72
2023/08/12 10:10:31;;;;;;;2.45;1.50;;;;;;;21.69;97.76;101428.25;5024865;28;20041;-73
2023/08/12 10:12:58;;;;;;;4.22;1.77;;;;;;;21.86;94.16;101437.44;5012379;28;20057;-72
2023/08/12 10:15:24;;;;;;;4.55;1.65;;;;;;;21.91;91.49;101432.25;5017540;28;20025;-71
2023/08/12 10:17:51;;;;;;;3.10;1.63;;;;;;;21.96;90.91;101429.81;5028438;28;20500;-73
2023/08/12 10:20:24;;;;;;;4.35;1.40;;;;;;;22.17;91.09;101428.50;5016755;28;20478;-73
2023/08/12 10:22:53;;;;;;;3.22;1.55;;;;;;;22.31;90.61;101425.03;5010351;28;20037;-72
2023/08/12 10:25:22;;;;;;;3.20;1.60;;;;;;;22.74;91.46;101422.91;5011955;28;20387;-72
2023/08/12 10:27:48;;;;;;;6.28;1.63;;;;;;;22.79;84.36;101423.25;5009016;28;20469;-73
2023/08/12 10:30:14;;;;;;;6.68;1.40;;;;;;;23.08;89.60;101419.88;5023219;28;20037;-73
2023/08/12 10:32:39;;;;;;;3.45;1.45;;;;;;;23.42;87.72;101416.81;5018696;28;20084;-72
2023/08/12 10:35:06;;;;;;;5.32;1.60;;;;;;;23.77;85.83;101418.19;5022628;28;20045;-73
2023/08/12 10:37:33;;;;;;;3.97;1.50;;;;;;;23.76;78.16;101405.34;5019804;28;20053;-73
2023/08/12 10:39:58;;;;;;;6.32;1.13;;;;;;;23.71;82.94;101413.38;5020908;28;20083;-73
2023/08/12 10:42:44;;;;;;;4.68;1.58;;;;;;;23.79;80.47;101420.81;5016546;28;20504;-73
2023/08/12 10:45:11;;;;;;;6.07;1.60;;;;;;;23.73;80.72;101415.94;5018497;28;20386;-73
2023/08/12 10:48:12;;;;;;;3.67;1.60;;;;;;;23.95;81.32;101425.38;5011689;28;20429;-73
2023/08/12 10:50:44;;;;;;;8.02;1.33;;;;;;;24.13;80.97;101429.56;5011629;28;20164;-73
2023/08/12 10:53:31;;;;;;;4.90;1.40;;;;;;;24.37;79.34;101420.19;5009120;28;20037;-73
2023/08/12 10:55:58;;;;;;;6.20;1.35;;;;;;;24.53;77.08;101421.97;5008792;28;20072;-73
2023/08/12 10:58:33;;;;;;;4.03;1.20;;;;;;;24.64;76.86;101426.19;5009119;28;20046;-73
2023/08/12 11:00:59;;;;;;;3.58;1.17;;;;;;;24.59;73.29;101423.13;5008704;28;20394;-73
2023/08/12 11:03:25;;;;;;;4.78;1.70;;;;;;;24.55;70.42;101430.13;5022259;28;20043;-73
2023/08/12 11:05:50;;;;;;;4.10;1.20;;;;;;;24.42;67.73;101428.81;5029092;28;20057;-74
2023/08/12 11:08:16;;;;;;;5.35;1.45;;;;;;;24.37;70.63;101436.88;5027083;28;20048;-73
2023/08/12 11:10:43;;;;;;;5.28;1.85;;;;;;;24.29;70.65;101442.47;5028983;28;20493;-73